Language selection

Features

My Weather Profile Weather Topics  | 

Northumberland Strait: Past 24 Hour Conditions

 

Banquereau - 44139

01:00 AM AST 12 December 2019Buoy position: 44.27N 57.08W
Disclaimer

This table is a summary of hourly weather conditions for the past 24 hours.
Please note that these observations might not always be representative of weather conditions over their associated marine area.

Date / Time
(AST)
Wind(knots) Wave height(m) Wave period(s) Pressure(kPa) Air tempC) Water tempC)
12 December 2019
1:00 NNE 19 gust 25 3.7 12.0 101.8 3 10
0:00 NNE 19 gust 25 3.7 11.0 101.7 3 9
11 December 2019
23:00 NNE 19 gust 25 3.7 12.0 101.8 3 9
22:00 NE 19 gust 23 3.8 11.0 101.7 4 8
21:00 NE 17 gust 22 3.9 13.0 101.7 3 8
20:00 NNE 22 gust 25 3.9 12.0 101.7 4 7
19:00 NNE 19 gust 25 4.0 11.0 101.6 4 7
18:00 NNE 19 gust 25 4.7 12.0 101.6 4 7
17:00 NNE 17 gust 23 4.0 12.0 101.5 5 7
16:00 NNE 16 gust 22 4.0 11.0 101.5 6 8
15:00 ENE 12 gust 16 4.5 12.0 101.4 6 9
14:00 NNE 8 gust 12 4.3 12.0 101.5 7 10
13:00 N 10 gust 13 5.3 12.0 101.5 7 10
12:00 WNW 16 gust 22 5.4 12.0 101.5 10 10
11:00 W 22 gust 29 5.3 12.0 101.5 13 9
10:00 WSW 29 gust 35 5.3 13.0 101.5 14 9
9:00 WSW 27 gust 33 5.3 12.0 101.5 14 9
8:00 WSW 27 gust 37 5.1 13.0 101.5 14 9
7:00 WSW 27 gust 31 5.5 13.0 101.5 13 9
6:00 WSW 27 gust 33 5.3 11.0 101.5 13 9
5:00 WSW 27 gust 31 5.9 11.0 101.6 13 9
4:00 WSW 29 gust 35 5.5 13.0 101.6 13 10
3:00 WSW 29 gust 37 5.5 12.0 101.6 13 10
2:00 WSW 31 gust 39 5.7 13.0 101.6 13 10
1:00 WSW 33 gust 37 5.7 12.0 101.6 13 10

Zoom-in to make a selection

Map of Atlantic - Newfoundland marine weather areas Banquereau - 44139 Blanc-Sablon Airport Cap Whittle Chevery Natashquan Airport Heath Point Îles de la Madeleine Airport Miscou Island Eskasoni (First Nations) Grand Étang Ingonish Beach North Mountain St.Paul Island J.A. Douglas McCurdy Sydney Airport Charlottetown Airport East Point North Cape Argentia Bonavista Burgeo Cape Race Corner Brook Daniel's Harbour Englee Ferolle Point La Scie Port aux Basques Rocky Harbour Sagona Island St. Anthony Airport St. John's Int'l Airport St. Lawrence Stephenville Airport Twillingate Winterland Branch Hill Wreckhouse Grates Cove Pool's Island Marticot Island Long Pond Cartwright Airport Mary's Harbour
Legend:
buoy Buoy
land station Land Station

Atlantic - Newfoundland Area

Another Region

What we are doing

Date modified: